首页
METAR-TAF:

METAR-TAF

机场 :

拉纳卡国际机场

拉纳卡, 塞浦路斯

纬度: 34-53N, 经度: 033-38E, 海拔: 2米

当前天气观测

该预报发布于25分钟前的01:30 UTC
风速3节,风向西北
温度 9°C
湿度 93%
气压 1018 hPa
能见度10公里或以上
少量云层高于2500英尺

METAR: LCLK 230130Z 32003KT 9999 FEW025 09/08 Q1018 NOSIG

时间: 03:55 (01:55 UTC)

预报

该预报发布于2小时和25分钟前的23:30 UTC
预报有效从23日的 00点(UTC)到 23日的 24点(UTC)
风速9节,风向
能见度10公里或以上
少量云层高于2000英尺
散云层高于4000英尺

TAF: LCLK 222330Z 2300/2324 08009KT 9999 FEW020 SCT040

超过4000个机场的气象观测和天气预报(METAR&TAF报告)。

可查询的气象台以黄色和红色小点在地图上表示。

将鼠标移到小点上方,可查看气象台名称。

然后点击查看天气观测和预报。

如需切换地图:点击带黑十字的绿色按钮放大地图;点击带横线的绿色按钮缩小地图;或者点击绿色箭头查看邻近地区的地图。


METAR-TAF: